createdAt,value
2023-03-26T00:01:39.615Z,26.60
2023-03-26T00:04:07.601Z,23.95
2023-03-26T00:06:40.050Z,28.67
2023-03-26T00:09:09.949Z,24.90
2023-03-26T00:11:37.048Z,24.23
2023-03-26T00:14:05.747Z,25.77
2023-03-26T00:16:33.383Z,27.90
2023-03-26T00:19:02.261Z,28.58
2023-03-26T00:21:30.831Z,26.50
2023-03-26T00:24:01.083Z,24.58
2023-03-26T00:26:31.253Z,28.55
2023-03-26T00:29:00.607Z,30.92
2023-03-26T00:33:55.792Z,26.30
2023-03-26T00:36:25.823Z,27.52
2023-03-26T00:38:54.351Z,25.05
2023-03-26T00:41:24.980Z,26.58
2023-03-26T00:43:56.666Z,29.38
2023-03-26T00:46:25.894Z,28.85
2023-03-26T00:48:53.949Z,32.60
2023-03-26T00:51:21.981Z,27.17
2023-03-26T00:53:50.852Z,34.08
2023-03-26T00:56:19.126Z,26.77
2023-03-26T00:58:50.173Z,28.85
2023-03-26T01:01:21.686Z,31.25
2023-03-26T01:04:05.222Z,27.88
2023-03-26T01:06:42.536Z,25.38
2023-03-26T01:09:19.074Z,30.88
2023-03-26T01:14:18.543Z,27.40
2023-03-26T01:16:52.374Z,30.23
2023-03-26T01:19:34.144Z,30.45
2023-03-26T01:22:01.423Z,30.08
2023-03-26T01:24:28.883Z,27.58
2023-03-26T01:27:17.933Z,31.50
2023-03-26T01:29:56.116Z,25.67
2023-03-26T01:32:50.276Z,28.52
2023-03-26T01:35:29.018Z,30.13
2023-03-26T01:37:58.898Z,32.05
2023-03-26T01:40:38.676Z,29.60
2023-03-26T01:43:12.953Z,28.67
2023-03-26T01:45:45.002Z,32.10
2023-03-26T01:48:13.254Z,26.98
2023-03-26T01:50:41.490Z,30.13
2023-03-26T01:53:11.526Z,32.65
2023-03-26T01:55:49.561Z,26.85
2023-03-26T01:58:30.580Z,28.63
2023-03-26T02:01:02.245Z,31.35
2023-03-26T02:03:38.379Z,24.27
2023-03-26T02:06:30.798Z,32.03
2023-03-26T02:09:08.595Z,28.00
2023-03-26T02:11:38.627Z,33.38
2023-03-26T02:14:07.256Z,33.28
2023-03-26T02:16:34.695Z,33.55
2023-03-26T02:19:01.955Z,28.45
2023-03-26T02:21:29.295Z,31.75
2023-03-26T02:24:05.581Z,33.13
2023-03-26T02:26:35.719Z,29.85
2023-03-26T02:29:03.020Z,32.22
2023-03-26T02:31:30.636Z,37.88
2023-03-26T02:33:57.701Z,34.33
2023-03-26T02:36:27.862Z,34.35
2023-03-26T02:38:58.255Z,27.85
2023-03-26T02:41:25.960Z,31.00
2023-03-26T02:43:53.104Z,30.33
2023-03-26T02:46:20.644Z,31.40
2023-03-26T02:48:48.104Z,34.80
2023-03-26T02:51:18.266Z,31.02
2023-03-26T02:53:46.225Z,32.78
2023-03-26T02:56:13.860Z,31.77
2023-03-26T02:58:40.991Z,31.90
2023-03-26T03:01:08.357Z,31.60
2023-03-26T03:03:36.617Z,34.28
2023-03-26T03:06:04.304Z,36.40
2023-03-26T03:08:31.822Z,36.38
2023-03-26T03:11:07.956Z,35.42
2023-03-26T03:13:34.906Z,34.58
2023-03-26T03:16:02.626Z,32.63
2023-03-26T03:18:29.674Z,31.10
2023-03-26T03:20:57.027Z,31.95
2023-03-26T03:23:24.078Z,33.90
2023-03-26T03:25:52.864Z,33.08
2023-03-26T03:28:20.213Z,31.60
2023-03-26T03:30:48.989Z,34.22
2023-03-26T03:33:16.241Z,31.70
2023-03-26T03:35:45.982Z,37.50
2023-03-26T03:38:13.006Z,30.85
2023-03-26T03:40:40.649Z,34.25
2023-03-26T03:43:07.618Z,34.63
2023-03-26T03:45:35.148Z,30.30
2023-03-26T03:48:02.366Z,32.65
2023-03-26T03:50:29.967Z,36.45
2023-03-26T03:52:59.167Z,31.60
2023-03-26T03:55:27.861Z,33.47
2023-03-26T03:57:54.946Z,38.92
2023-03-26T04:00:22.743Z,30.55
2023-03-26T04:02:50.589Z,37.22
2023-03-26T04:05:17.918Z,35.50
2023-03-26T04:07:45.659Z,40.05
2023-03-26T04:12:42.158Z,35.33
2023-03-26T04:15:12.181Z,36.20
2023-03-26T04:17:43.001Z,36.35
2023-03-26T04:20:14.964Z,40.50
2023-03-26T04:22:45.996Z,40.13
2023-03-26T04:25:13.810Z,34.85
2023-03-26T04:27:43.449Z,33.88
2023-03-26T04:30:15.923Z,35.63
2023-03-26T04:32:44.995Z,35.67
2023-03-26T04:35:16.813Z,38.67
2023-03-26T04:37:46.068Z,36.15
2023-03-26T04:40:22.470Z,37.22
2023-03-26T04:42:49.801Z,36.85
2023-03-26T04:45:22.891Z,30.52
2023-03-26T04:47:50.807Z,35.78
2023-03-26T04:50:18.577Z,35.83
2023-03-26T04:52:46.021Z,37.72
2023-03-26T04:55:26.044Z,37.70
2023-03-26T04:58:00.277Z,35.33
2023-03-26T05:00:30.327Z,37.85
2023-03-26T05:02:59.802Z,42.42
2023-03-26T05:05:30.936Z,35.40
2023-03-26T05:07:58.186Z,33.72
2023-03-26T05:10:35.165Z,31.17
2023-03-26T05:13:02.562Z,21.50
2023-03-26T05:15:31.133Z,23.83
2023-03-26T05:18:01.891Z,21.00
2023-03-26T05:20:31.269Z,20.25
2023-03-26T05:22:58.417Z,16.70
2023-03-26T05:25:30.226Z,18.00
2023-03-26T05:27:57.549Z,18.77
2023-03-26T05:30:24.966Z,17.48
2023-03-26T05:32:52.213Z,16.20
2023-03-26T05:35:20.430Z,17.38
2023-03-26T05:37:49.952Z,14.70
2023-03-26T05:40:32.153Z,15.63
2023-03-26T05:42:59.705Z,14.32
2023-03-26T05:45:26.697Z,15.13
2023-03-26T05:47:56.069Z,12.45
2023-03-26T05:50:25.005Z,14.50
2023-03-26T05:52:52.602Z,9.80
2023-03-26T05:55:20.353Z,13.05
2023-03-26T05:57:48.063Z,14.02
2023-03-26T06:00:15.462Z,15.23
2023-03-26T06:02:42.966Z,14.23
2023-03-26T06:05:10.396Z,13.90
2023-03-26T06:07:37.722Z,12.00
2023-03-26T06:10:05.121Z,10.48
2023-03-26T06:12:32.545Z,12.88
2023-03-26T06:14:59.771Z,10.52
2023-03-26T06:17:27.323Z,12.25
2023-03-26T06:19:54.772Z,10.95
2023-03-26T06:22:22.293Z,12.10
2023-03-26T06:24:50.440Z,10.25
2023-03-26T06:29:46.314Z,12.43
2023-03-26T06:32:19.531Z,11.88
2023-03-26T06:34:47.671Z,9.82
2023-03-26T06:37:16.202Z,10.32
2023-03-26T06:39:43.492Z,8.57
2023-03-26T06:42:11.035Z,9.02
2023-03-26T06:44:38.247Z,10.30
2023-03-26T06:47:05.882Z,8.25
2023-03-26T06:49:34.586Z,7.78
2023-03-26T06:52:05.203Z,8.27
2023-03-26T06:54:32.276Z,5.78
2023-03-26T06:57:00.041Z,10.40
2023-03-26T06:59:27.224Z,9.50
2023-03-26T07:01:54.725Z,8.07
2023-03-26T07:04:23.268Z,6.95
2023-03-26T07:06:51.516Z,7.93
2023-03-26T07:09:18.601Z,8.98
2023-03-26T07:14:33.320Z,7.18
2023-03-26T07:17:03.497Z,6.47
2023-03-26T07:19:31.336Z,8.93
2023-03-26T07:22:04.783Z,9.13
2023-03-26T07:27:47.501Z,5.50
2023-03-26T07:31:00.016Z,9.63
2023-03-26T07:33:38.925Z,6.45
2023-03-26T07:36:29.418Z,4.72
2023-03-26T07:39:18.950Z,7.47
2023-03-26T07:45:09.796Z,6.65
2023-03-26T07:47:45.212Z,5.80
2023-03-26T07:50:21.329Z,7.00
2023-03-26T07:52:48.852Z,7.15
2023-03-26T07:55:17.400Z,5.55
2023-03-26T07:57:48.834Z,5.78
2023-03-26T08:00:25.727Z,7.38
2023-03-26T08:03:10.130Z,5.82
2023-03-26T08:05:59.454Z,6.57
2023-03-26T08:08:57.354Z,7.55
2023-03-26T08:11:27.901Z,4.20
2023-03-26T08:14:27.011Z,5.75
2023-03-26T08:17:03.360Z,6.53
2023-03-26T08:19:46.981Z,5.18
2023-03-26T08:22:31.501Z,6.03
2023-03-26T08:25:19.978Z,6.28
2023-03-26T08:28:08.963Z,5.80
2023-03-26T08:30:40.946Z,6.30
2023-03-26T08:33:22.904Z,6.18
2023-03-26T08:38:20.145Z,6.03
2023-03-26T08:41:30.110Z,5.30
2023-03-26T08:44:35.575Z,6.82
2023-03-26T08:47:25.964Z,5.38
2023-03-26T08:50:12.163Z,4.97
2023-03-26T08:52:43.341Z,5.10
2023-03-26T08:55:43.538Z,5.35
2023-03-26T08:58:33.711Z,5.68
2023-03-26T09:01:25.825Z,5.07
2023-03-26T09:04:21.733Z,4.60
2023-03-26T09:07:12.828Z,9.25
2023-03-26T09:10:15.721Z,5.38
2023-03-26T09:12:52.368Z,4.43
2023-03-26T09:15:47.816Z,5.10
2023-03-26T09:18:40.064Z,5.28
2023-03-26T09:21:25.980Z,4.55
2023-03-26T09:24:25.842Z,4.13
2023-03-26T09:27:26.295Z,6.75
2023-03-26T09:30:24.758Z,5.43
2023-03-26T09:32:58.638Z,4.63
2023-03-26T09:38:37.161Z,4.28
2023-03-26T09:41:30.943Z,4.95
2023-03-26T09:44:44.730Z,2.55
2023-03-26T09:47:54.065Z,7.18
2023-03-26T09:50:33.225Z,4.65
2023-03-26T09:53:25.030Z,4.97
2023-03-26T09:56:14.906Z,3.63
2023-03-26T09:59:08.308Z,4.63
2023-03-26T10:01:54.458Z,5.25
2023-03-26T10:04:50.296Z,3.63
2023-03-26T10:07:41.725Z,5.18
2023-03-26T10:10:26.070Z,2.40
2023-03-26T10:13:14.063Z,4.85
2023-03-26T10:16:20.929Z,3.08
2023-03-26T10:19:42.293Z,3.97
2023-03-26T10:22:23.011Z,6.50
2023-03-26T10:25:15.168Z,4.45
2023-03-26T10:28:14.364Z,2.65
2023-03-26T10:31:06.318Z,3.03
2023-03-26T10:34:08.764Z,2.30
2023-03-26T10:37:45.602Z,3.40
2023-03-26T10:40:50.299Z,1.90
2023-03-26T10:44:07.534Z,2.03
2023-03-26T10:46:56.949Z,3.15
2023-03-26T10:49:27.818Z,1.13
2023-03-26T10:51:59.711Z,1.30
2023-03-26T10:55:12.181Z,3.38
2023-03-26T10:58:24.930Z,2.13
2023-03-26T11:01:09.646Z,1.45
2023-03-26T11:03:38.568Z,1.50
2023-03-26T11:06:26.964Z,2.15
2023-03-26T11:09:03.049Z,3.10
2023-03-26T11:11:55.818Z,4.50
2023-03-26T11:18:05.469Z,1.30
2023-03-26T11:21:18.904Z,1.98
2023-03-26T11:24:43.045Z,2.40
2023-03-26T11:27:25.866Z,1.55
2023-03-26T11:30:00.660Z,2.20
2023-03-26T11:32:41.506Z,1.27
2023-03-26T11:35:40.236Z,2.15
2023-03-26T11:38:51.041Z,1.58
2023-03-26T11:41:23.891Z,2.25
2023-03-26T11:43:58.012Z,2.60
2023-03-26T11:46:28.853Z,2.70
2023-03-26T11:49:09.778Z,2.90
2023-03-26T11:51:41.888Z,2.03
2023-03-26T11:54:12.623Z,2.38
2023-03-26T11:57:05.805Z,1.77
2023-03-26T11:59:49.063Z,1.40
2023-03-26T12:02:41.354Z,2.38
2023-03-26T12:05:16.630Z,3.30
2023-03-26T12:07:54.130Z,4.57
2023-03-26T12:10:30.138Z,2.42
2023-03-26T12:13:22.346Z,1.65
2023-03-26T12:15:50.454Z,1.98
2023-03-26T12:18:26.347Z,3.58
2023-03-26T12:23:56.573Z,4.65
2023-03-26T12:26:45.776Z,2.38
2023-03-26T12:29:22.119Z,2.55
2023-03-26T12:31:56.190Z,2.55
2023-03-26T12:34:32.220Z,6.00
2023-03-26T12:37:03.784Z,1.48
2023-03-26T12:40:08.826Z,2.25
2023-03-26T12:44:44.118Z,1.27
2023-03-26T12:45:42.348Z,4.38
2023-03-26T12:48:15.853Z,2.25
2023-03-26T12:51:18.508Z,1.88
2023-03-26T12:53:54.981Z,2.58
2023-03-26T12:57:11.925Z,2.10
2023-03-26T13:00:11.552Z,4.97
2023-03-26T13:03:10.596Z,4.53
2023-03-26T13:06:16.675Z,3.60
2023-03-26T13:09:22.656Z,2.72
2023-03-26T13:12:24.812Z,4.63
2023-03-26T13:15:25.775Z,2.42
2023-03-26T13:18:28.966Z,2.35
2023-03-26T13:21:10.426Z,3.33
2023-03-26T13:23:57.584Z,3.67
2023-03-26T13:26:45.902Z,2.88
2023-03-26T13:29:29.101Z,3.13
2023-03-26T13:32:21.611Z,3.45
2023-03-26T13:35:19.078Z,3.50
2023-03-26T13:38:12.079Z,2.85
2023-03-26T13:41:12.092Z,2.45
2023-03-26T13:44:05.494Z,2.20
2023-03-26T13:46:38.114Z,2.30
2023-03-26T13:49:06.356Z,2.05
2023-03-26T13:51:44.831Z,1.85
2023-03-26T13:54:17.002Z,2.58
2023-03-26T13:56:52.735Z,2.67
2023-03-26T13:59:38.140Z,1.80
2023-03-26T14:02:11.821Z,2.65
2023-03-26T14:04:44.550Z,3.17
2023-03-26T14:07:23.761Z,2.08
2023-03-26T14:10:19.343Z,3.60
2023-03-26T14:13:30.656Z,2.45
2023-03-26T14:16:17.872Z,3.25
2023-03-26T14:19:13.215Z,5.15
2023-03-26T14:21:49.805Z,3.17
2023-03-26T14:25:03.846Z,3.28
2023-03-26T14:31:08.683Z,4.22
2023-03-26T14:33:58.832Z,2.83
2023-03-26T14:40:28.209Z,3.72
2023-03-26T14:43:26.392Z,2.95
2023-03-26T14:46:18.278Z,3.95
2023-03-26T14:49:40.184Z,3.83
2023-03-26T14:52:22.534Z,2.25
2023-03-26T14:58:23.262Z,4.38
2023-03-26T15:01:17.558Z,6.78
2023-03-26T15:04:07.169Z,3.72
2023-03-26T15:07:16.278Z,2.45
2023-03-26T15:09:58.808Z,3.65
2023-03-26T15:13:11.098Z,10.48
2023-03-26T15:15:53.818Z,1.70
2023-03-26T15:18:41.955Z,2.88
2023-03-26T15:21:45.895Z,2.30
2023-03-26T15:24:50.941Z,1.20
2023-03-26T15:27:27.088Z,1.33
2023-03-26T15:29:57.614Z,2.50
2023-03-26T15:32:46.329Z,4.15
2023-03-26T15:35:26.406Z,3.90
2023-03-26T15:38:25.138Z,2.47
2023-03-26T15:41:23.144Z,2.67
2023-03-26T15:47:21.941Z,2.40
2023-03-26T15:49:55.549Z,3.08
2023-03-26T15:52:38.142Z,3.17
2023-03-26T15:55:28.831Z,2.53
2023-03-26T15:58:35.576Z,2.60
2023-03-26T16:01:40.811Z,3.70
2023-03-26T16:04:18.097Z,3.10
2023-03-26T16:07:04.658Z,3.92
2023-03-26T16:09:58.745Z,3.20
2023-03-26T16:12:36.856Z,2.97
2023-03-26T16:15:22.565Z,4.82
2023-03-26T16:18:07.077Z,5.55
2023-03-26T16:20:55.780Z,3.10
2023-03-26T16:23:47.738Z,5.63
2023-03-26T16:26:21.145Z,3.50
2023-03-26T16:28:55.609Z,2.72
2023-03-26T16:31:38.477Z,2.83
2023-03-26T16:34:08.440Z,3.15
2023-03-26T16:36:39.101Z,2.45
2023-03-26T16:39:08.370Z,3.38
2023-03-26T16:42:46.496Z,4.75
2023-03-26T16:45:35.726Z,5.95
2023-03-26T16:48:29.092Z,7.43
2023-03-26T16:51:35.734Z,9.98
2023-03-26T16:54:18.291Z,9.70
2023-03-26T16:57:18.493Z,13.75
2023-03-26T17:00:16.514Z,19.35
2023-03-26T17:02:57.839Z,11.05
2023-03-26T17:05:53.044Z,21.65
2023-03-26T17:08:53.595Z,10.55
2023-03-26T17:11:49.323Z,11.50
2023-03-26T17:14:22.878Z,7.32
2023-03-26T17:17:23.289Z,10.70
2023-03-26T17:20:04.293Z,9.73
2023-03-26T17:22:31.660Z,12.05
2023-03-26T17:25:19.549Z,15.15
2023-03-26T17:27:55.961Z,19.45
2023-03-26T17:30:33.713Z,16.98
2023-03-26T17:33:20.171Z,20.42
2023-03-26T17:35:53.361Z,17.50
2023-03-26T17:38:23.562Z,22.30
2023-03-26T17:43:53.222Z,19.40
2023-03-26T17:46:33.173Z,14.63
2023-03-26T17:49:27.324Z,15.60
2023-03-26T17:51:58.409Z,14.88
2023-03-26T17:54:44.332Z,13.05
2023-03-26T17:57:24.065Z,13.93
2023-03-26T18:00:09.285Z,15.18
2023-03-26T18:05:29.553Z,18.00
2023-03-26T18:08:02.174Z,18.90
2023-03-26T18:10:53.758Z,17.95
2023-03-26T18:13:43.375Z,22.48
2023-03-26T18:16:21.285Z,17.25
2023-03-26T18:18:59.164Z,20.75
2023-03-26T18:21:52.088Z,15.85
2023-03-26T18:24:27.919Z,15.77
2023-03-26T18:27:13.280Z,14.98
2023-03-26T18:30:13.336Z,15.25
2023-03-26T18:33:00.329Z,16.25
2023-03-26T18:35:41.787Z,14.82
2023-03-26T18:38:37.166Z,14.63
2023-03-26T18:41:37.458Z,14.07
2023-03-26T18:44:17.594Z,18.27
2023-03-26T18:47:01.606Z,16.73
2023-03-26T18:49:42.095Z,16.00
2023-03-26T18:52:27.835Z,28.80
2023-03-26T18:54:57.146Z,13.45
2023-03-26T18:57:32.172Z,17.90
2023-03-26T19:00:19.484Z,22.73
2023-03-26T19:03:02.201Z,17.67
2023-03-26T19:05:36.880Z,19.30
2023-03-26T19:08:07.546Z,22.55
2023-03-26T19:10:38.337Z,19.50
2023-03-26T19:13:08.355Z,19.45
2023-03-26T19:15:41.156Z,17.90
2023-03-26T19:18:14.567Z,19.73
2023-03-26T19:23:46.778Z,12.75
2023-03-26T19:26:15.488Z,13.57
2023-03-26T19:29:02.093Z,19.70
2023-03-26T19:31:32.365Z,18.90
2023-03-26T19:34:14.908Z,30.48
2023-03-26T19:36:58.384Z,31.67
2023-03-26T19:39:51.308Z,33.75
2023-03-26T19:42:43.997Z,34.67
2023-03-26T19:45:20.564Z,20.23
2023-03-26T19:47:57.289Z,27.23
2023-03-26T19:50:34.552Z,28.58
2023-03-26T19:53:19.275Z,30.35
2023-03-26T19:56:08.647Z,35.03
2023-03-26T19:58:36.548Z,25.40
2023-03-26T20:01:04.911Z,30.73
2023-03-26T20:03:44.706Z,32.05
2023-03-26T20:06:16.020Z,38.22
2023-03-26T20:08:45.499Z,23.27
2023-03-26T20:13:47.346Z,28.10
2023-03-26T20:19:15.266Z,51.47
2023-03-26T20:21:44.541Z,61.08
2023-03-26T20:24:15.843Z,59.78
2023-03-26T20:26:44.976Z,102.22
2023-03-26T20:29:15.440Z,190.38
2023-03-26T20:31:43.304Z,52.80
2023-03-26T20:34:22.720Z,127.28
2023-03-26T20:37:01.161Z,129.75
2023-03-26T20:39:29.913Z,116.70
2023-03-26T20:42:00.191Z,79.35
2023-03-26T20:44:29.025Z,105.35
2023-03-26T20:46:57.955Z,87.18
2023-03-26T20:49:29.358Z,76.18
2023-03-26T20:51:57.083Z,69.95
2023-03-26T20:54:28.109Z,61.53
2023-03-26T20:56:55.295Z,47.58
2023-03-26T20:59:27.044Z,41.03
2023-03-26T21:01:57.359Z,44.78
2023-03-26T21:04:26.403Z,49.25
2023-03-26T21:07:00.439Z,43.97
2023-03-26T21:09:34.252Z,45.58
2023-03-26T21:12:33.547Z,49.97
2023-03-26T21:15:03.293Z,39.63
2023-03-26T21:17:32.334Z,43.97
2023-03-26T21:20:09.041Z,45.75
2023-03-26T21:23:00.171Z,46.78
2023-03-26T21:25:53.997Z,44.47
2023-03-26T21:28:42.033Z,39.60
2023-03-26T21:31:18.646Z,54.10
2023-03-26T21:33:46.741Z,53.50
2023-03-26T21:36:14.993Z,52.92
2023-03-26T21:38:45.801Z,56.05
2023-03-26T21:41:43.804Z,53.75
2023-03-26T21:44:11.058Z,51.58
2023-03-26T21:46:41.661Z,49.35
2023-03-26T21:49:09.225Z,34.22
2023-03-26T21:51:38.087Z,41.20
2023-03-26T21:54:25.946Z,38.65
2023-03-26T21:57:00.837Z,36.20
2023-03-26T21:59:37.040Z,32.85
2023-03-26T22:02:12.925Z,30.08
2023-03-26T22:04:54.601Z,32.42
2023-03-26T22:07:36.239Z,27.23
2023-03-26T22:10:03.364Z,29.20
2023-03-26T22:12:30.736Z,28.88
2023-03-26T22:14:58.198Z,30.58
2023-03-26T22:17:25.598Z,30.70
2023-03-26T22:19:52.664Z,34.22
2023-03-26T22:22:22.212Z,24.02
2023-03-26T22:27:16.841Z,26.42
2023-03-26T22:29:43.864Z,28.75
2023-03-26T22:32:12.272Z,28.10
2023-03-26T22:34:41.480Z,32.08
2023-03-26T22:37:08.819Z,29.70
2023-03-26T22:39:36.749Z,35.72
2023-03-26T22:42:05.094Z,30.23
2023-03-26T22:44:32.144Z,39.22
2023-03-26T22:46:59.587Z,37.50
2023-03-26T22:49:27.531Z,36.50
2023-03-26T22:51:57.428Z,35.25
2023-03-26T22:54:24.520Z,34.97
2023-03-26T22:56:52.479Z,40.05
2023-03-26T22:59:19.511Z,30.88
2023-03-26T23:01:46.863Z,28.60
2023-03-26T23:04:31.390Z,27.80
2023-03-26T23:07:00.123Z,30.05
2023-03-26T23:09:27.077Z,28.52
2023-03-26T23:11:54.392Z,28.50
2023-03-26T23:14:21.910Z,32.53
2023-03-26T23:16:50.028Z,35.17
2023-03-26T23:19:18.001Z,32.10
2023-03-26T23:21:45.419Z,29.98
2023-03-26T23:24:12.408Z,32.35
2023-03-26T23:26:49.618Z,29.42
2023-03-26T23:29:18.407Z,26.98
2023-03-26T23:31:45.820Z,28.20
2023-03-26T23:34:13.624Z,25.17
2023-03-26T23:36:41.947Z,26.13
2023-03-26T23:39:09.396Z,26.65
2023-03-26T23:41:36.909Z,29.60
2023-03-26T23:44:04.272Z,21.05
2023-03-26T23:46:34.824Z,23.20
2023-03-26T23:49:03.766Z,35.05
2023-03-26T23:56:27.841Z,26.70
2023-03-26T23:58:55.283Z,32.67
